createdAt,value
2019-05-18T00:04:44.992Z,1839
2019-05-18T00:09:54.432Z,1841
2019-05-18T00:15:03.598Z,1844
2019-05-18T00:20:13.039Z,1848
2019-05-18T00:25:21.924Z,1854
2019-05-18T00:30:31.657Z,1851
2019-05-18T00:35:40.538Z,1851
2019-05-18T00:40:49.686Z,1851
2019-05-18T00:45:58.851Z,1852
2019-05-18T00:51:07.751Z,1843
2019-05-18T00:56:16.639Z,1846
2019-05-18T01:01:25.516Z,1827
2019-05-18T01:06:34.953Z,1815
2019-05-18T01:11:44.127Z,1944
2019-05-18T01:16:53.563Z,1987
2019-05-18T01:22:02.441Z,1980
2019-05-18T01:27:14.162Z,1967
2019-05-18T01:32:23.905Z,1960
2019-05-18T01:37:33.050Z,1960
2019-05-18T01:42:42.501Z,1931
2019-05-18T01:47:51.655Z,1904
2019-05-18T01:53:00.829Z,1881
2019-05-18T01:58:10.294Z,1878
2019-05-18T02:03:19.452Z,1869
2019-05-18T02:08:28.611Z,1865
2019-05-18T02:13:37.509Z,1867
2019-05-18T02:18:46.390Z,1866
2019-05-18T02:23:55.272Z,1868
2019-05-18T02:29:04.431Z,1869
2019-05-18T02:34:13.327Z,1872
2019-05-18T02:39:22.271Z,1866
2019-05-18T02:44:31.713Z,1859
2019-05-18T02:49:40.599Z,1863
2019-05-18T02:54:50.030Z,1864
2019-05-18T02:59:59.212Z,1867
2019-05-18T03:05:08.401Z,1882
2019-05-18T03:10:17.536Z,1881
2019-05-18T03:15:26.994Z,1887
2019-05-18T03:20:36.157Z,1892
2019-05-18T03:25:45.301Z,1887
2019-05-18T03:30:54.466Z,1894
2019-05-18T03:36:03.466Z,1900
2019-05-18T03:41:12.901Z,1894
2019-05-18T03:46:23.970Z,1896
2019-05-18T03:51:33.546Z,1871
2019-05-18T03:56:42.718Z,1876
2019-05-18T04:01:51.606Z,1864
2019-05-18T04:07:00.474Z,1849
2019-05-18T04:12:09.917Z,1829
2019-05-18T04:17:19.654Z,1802
2019-05-18T04:22:29.089Z,1772
2019-05-18T04:27:38.534Z,1763
2019-05-18T04:32:47.439Z,1778
2019-05-18T04:37:56.608Z,1775
2019-05-18T04:43:05.505Z,1796
2019-05-18T04:48:14.369Z,1812
2019-05-18T04:53:23.819Z,1347
2019-05-18T04:58:33.266Z,1120
2019-05-18T05:03:42.144Z,1116
2019-05-18T05:08:51.024Z,1224
2019-05-18T05:13:59.909Z,1313
2019-05-18T05:19:08.994Z,1370
2019-05-18T05:24:17.840Z,1407
2019-05-18T05:29:26.722Z,1433
2019-05-18T05:34:35.888Z,1458
2019-05-18T05:39:44.776Z,1480
2019-05-18T05:44:53.658Z,1495
2019-05-18T05:50:02.540Z,1516
2019-05-18T05:55:11.422Z,1528
2019-05-18T06:00:20.593Z,1529
2019-05-18T06:05:30.033Z,1554
2019-05-18T06:10:39.490Z,1534
2019-05-18T06:15:48.930Z,1527
2019-05-18T06:20:58.077Z,1514
2019-05-18T06:26:07.244Z,1529
2019-05-18T06:31:16.397Z,1531
2019-05-18T06:36:25.843Z,1530
2019-05-18T06:41:34.737Z,1519
2019-05-18T06:46:43.901Z,1494
2019-05-18T06:51:52.793Z,1464
2019-05-18T06:57:01.669Z,1286
2019-05-18T07:02:10.858Z,1190
2019-05-18T07:07:20.014Z,1186
2019-05-18T07:12:28.900Z,1184
2019-05-18T07:17:37.788Z,1204
2019-05-18T07:22:46.969Z,949
2019-05-18T07:27:56.116Z,965
2019-05-18T07:33:05.560Z,903
2019-05-18T07:38:15.002Z,856
2019-05-18T07:43:24.172Z,827
2019-05-18T07:48:33.331Z,778
2019-05-18T07:53:42.771Z,813
2019-05-18T07:58:51.651Z,883
2019-05-18T08:04:01.089Z,922
2019-05-18T08:09:10.234Z,928
2019-05-18T08:14:19.116Z,920
2019-05-18T08:19:27.995Z,911
2019-05-18T08:24:37.447Z,903
2019-05-18T08:29:46.658Z,903
2019-05-18T08:34:56.109Z,896
2019-05-18T08:40:05.315Z,892
2019-05-18T08:45:14.573Z,884
2019-05-18T08:50:24.104Z,882
2019-05-18T08:55:33.021Z,877
2019-05-18T09:00:41.953Z,875
2019-05-18T20:24:50.668Z,1565
2019-05-18T20:30:00.104Z,1153
2019-05-18T20:35:09.266Z,1135
2019-05-18T20:40:18.707Z,1170
2019-05-18T20:45:27.896Z,1192
2019-05-18T20:50:37.338Z,1216
2019-05-18T20:55:46.778Z,1241
2019-05-18T21:00:55.670Z,1265
2019-05-18T21:06:05.381Z,1287
2019-05-18T21:11:14.819Z,1315
2019-05-18T21:16:24.251Z,1325
2019-05-18T21:21:33.711Z,1341
2019-05-18T21:26:42.946Z,1371
2019-05-18T21:31:52.618Z,1383
2019-05-18T21:37:02.093Z,1411
2019-05-18T21:42:11.525Z,1436
2019-05-18T21:47:21.272Z,1448
2019-05-18T21:52:30.410Z,1471
2019-05-18T21:57:39.572Z,1482
2019-05-18T22:02:48.740Z,1495
2019-05-18T22:07:58.177Z,1513
2019-05-18T22:13:10.327Z,1521
2019-05-18T22:18:24.278Z,1531
2019-05-18T22:23:34.129Z,1550
2019-05-18T22:28:43.576Z,1566
2019-05-18T22:33:53.303Z,1585
2019-05-18T22:39:02.465Z,1600
2019-05-18T22:44:11.618Z,1612
2019-05-18T22:49:20.783Z,1634
2019-05-18T22:54:30.235Z,1648
2019-05-18T22:59:39.674Z,1655
2019-05-18T23:04:49.117Z,1655
2019-05-18T23:09:58.843Z,1659
2019-05-18T23:15:08.011Z,1652
2019-05-18T23:20:17.169Z,1655
2019-05-18T23:25:26.618Z,1661
2019-05-18T23:30:35.497Z,1660
2019-05-18T23:35:44.384Z,1667
2019-05-18T23:40:53.821Z,1666
2019-05-18T23:46:02.987Z,1663
2019-05-18T23:51:12.458Z,1672
2019-05-18T23:56:22.180Z,1673
